sensor_id;sensor_type;location;lat;lon;timestamp;pressure;altitude;pressure_sealevel;temperature;humidity
10079;BME280;5078;42.544;22.966;2022-09-03T00:00:43;93843.03;;;16.50;100.00
10079;BME280;5078;42.544;22.966;2022-09-03T00:03:17;93852.88;;;16.63;100.00
10079;BME280;5078;42.544;22.966;2022-09-03T00:05:50;93842.22;;;16.49;100.00
10079;BME280;5078;42.544;22.966;2022-09-03T00:08:23;93831.13;;;16.46;100.00
10079;BME280;5078;42.544;22.966;2022-09-03T00:10:56;93827.03;;;16.43;100.00
10079;BME280;5078;42.544;22.966;2022-09-03T00:13:29;93834.78;;;16.58;100.00
10079;BME280;5078;42.544;22.966;2022-09-03T00:16:02;93811.41;;;16.40;100.00
10079;BME280;5078;42.544;22.966;2022-09-03T00:18:42;93824.63;;;16.80;100.00
10079;BME280;5078;42.544;22.966;2022-09-03T00:21:13;93817.81;;;16.77;100.00
10079;BME280;5078;42.544;22.966;2022-09-03T00:23:44;93801.06;;;16.50;100.00
10079;BME280;5078;42.544;22.966;2022-09-03T00:26:24;93821.31;;;16.71;100.00
10079;BME280;5078;42.544;22.966;2022-09-03T00:29:00;93835.13;;;16.68;100.00
10079;BME280;5078;42.544;22.966;2022-09-03T00:31:31;93807.19;;;16.57;100.00
10079;BME280;5078;42.544;22.966;2022-09-03T00:34:05;93827.38;;;16.53;100.00
10079;BME280;5078;42.544;22.966;2022-09-03T00:36:37;93802.03;;;16.63;100.00
10079;BME280;5078;42.544;22.966;2022-09-03T00:39:09;93826.75;;;16.96;100.00
10079;BME280;5078;42.544;22.966;2022-09-03T00:41:38;93795.50;;;16.90;100.00
10079;BME280;5078;42.544;22.966;2022-09-03T00:44:18;93825.94;;;16.96;100.00
10079;BME280;5078;42.544;22.966;2022-09-03T00:46:55;93817.09;;;16.95;100.00
10079;BME280;5078;42.544;22.966;2022-09-03T00:49:33;93831.81;;;17.11;100.00
10079;BME280;5078;42.544;22.966;2022-09-03T00:52:09;93826.69;;;16.78;100.00
10079;BME280;5078;42.544;22.966;2022-09-03T00:54:43;93836.44;;;16.52;100.00
10079;BME280;5078;42.544;22.966;2022-09-03T00:57:34;93844.41;;;16.66;100.00
10079;BME280;5078;42.544;22.966;2022-09-03T01:00:07;93825.16;;;16.44;100.00
10079;BME280;5078;42.544;22.966;2022-09-03T01:02:48;93835.09;;;16.30;100.00
10079;BME280;5078;42.544;22.966;2022-09-03T01:05:30;93837.63;;;16.11;100.00
10079;BME280;5078;42.544;22.966;2022-09-03T01:08:09;93810.31;;;16.03;100.00
10079;BME280;5078;42.544;22.966;2022-09-03T01:10:45;93847.84;;;16.34;100.00
10079;BME280;5078;42.544;22.966;2022-09-03T01:13:21;93844.53;;;16.32;100.00
10079;BME280;5078;42.544;22.966;2022-09-03T01:15:56;93859.41;;;16.28;100.00
10079;BME280;5078;42.544;22.966;2022-09-03T01:18:31;93868.25;;;16.22;100.00
10079;BME280;5078;42.544;22.966;2022-09-03T01:21:16;93860.84;;;16.24;100.00
10079;BME280;5078;42.544;22.966;2022-09-03T01:24:16;93865.13;;;16.32;100.00
10079;BME280;5078;42.544;22.966;2022-09-03T01:27:07;93883.47;;;16.22;100.00
10079;BME280;5078;42.544;22.966;2022-09-03T01:29:39;93874.38;;;16.36;100.00
10079;BME280;5078;42.544;22.966;2022-09-03T01:32:13;93877.88;;;16.43;100.00
10079;BME280;5078;42.544;22.966;2022-09-03T01:34:49;93877.69;;;16.38;100.00
10079;BME280;5078;42.544;22.966;2022-09-03T01:37:30;93869.78;;;16.50;100.00
10079;BME280;5078;42.544;22.966;2022-09-03T01:40:08;93879.56;;;16.31;100.00
10079;BME280;5078;42.544;22.966;2022-09-03T01:42:47;93883.25;;;16.30;100.00
10079;BME280;5078;42.544;22.966;2022-09-03T01:45:40;93882.84;;;16.33;100.00
10079;BME280;5078;42.544;22.966;2022-09-03T01:48:30;93886.75;;;16.30;100.00
10079;BME280;5078;42.544;22.966;2022-09-03T01:51:05;93876.06;;;16.24;100.00
10079;BME280;5078;42.544;22.966;2022-09-03T01:53:45;93886.78;;;16.24;100.00
10079;BME280;5078;42.544;22.966;2022-09-03T01:56:27;93877.69;;;16.25;100.00
10079;BME280;5078;42.544;22.966;2022-09-03T01:59:03;93869.91;;;16.10;100.00
10079;BME280;5078;42.544;22.966;2022-09-03T02:01:36;93881.41;;;16.24;100.00
10079;BME280;5078;42.544;22.966;2022-09-03T02:04:14;93878.78;;;16.10;100.00
10079;BME280;5078;42.544;22.966;2022-09-03T02:06:42;93886.34;;;16.27;100.00
10079;BME280;5078;42.544;22.966;2022-09-03T02:09:12;93893.50;;;16.39;100.00
10079;BME280;5078;42.544;22.966;2022-09-03T02:11:39;93887.75;;;16.43;100.00
10079;BME280;5078;42.544;22.966;2022-09-03T02:14:06;93841.59;;;16.47;100.00
10079;BME280;5078;42.544;22.966;2022-09-03T02:16:34;93868.50;;;16.66;100.00
10079;BME280;5078;42.544;22.966;2022-09-03T02:19:04;93873.72;;;16.47;100.00
10079;BME280;5078;42.544;22.966;2022-09-03T02:21:34;93882.19;;;16.44;100.00
10079;BME280;5078;42.544;22.966;2022-09-03T02:24:02;93869.59;;;16.51;100.00
10079;BME280;5078;42.544;22.966;2022-09-03T02:26:30;93882.03;;;16.84;100.00
10079;BME280;5078;42.544;22.966;2022-09-03T02:28:58;93880.22;;;16.71;100.00
10079;BME280;5078;42.544;22.966;2022-09-03T02:31:25;93882.56;;;16.99;100.00
10079;BME280;5078;42.544;22.966;2022-09-03T02:33:55;93882.03;;;16.84;100.00
10079;BME280;5078;42.544;22.966;2022-09-03T02:36:26;93874.22;;;16.76;100.00
10079;BME280;5078;42.544;22.966;2022-09-03T02:38:54;93878.00;;;16.61;100.00
10079;BME280;5078;42.544;22.966;2022-09-03T02:41:21;93883.00;;;16.45;100.00
10079;BME280;5078;42.544;22.966;2022-09-03T02:43:55;93870.28;;;16.40;100.00
10079;BME280;5078;42.544;22.966;2022-09-03T02:46:28;93889.63;;;16.29;100.00
10079;BME280;5078;42.544;22.966;2022-09-03T02:48:59;93875.25;;;16.23;100.00
10079;BME280;5078;42.544;22.966;2022-09-03T02:51:26;93886.34;;;16.33;100.00
10079;BME280;5078;42.544;22.966;2022-09-03T02:53:57;93886.31;;;16.40;100.00
10079;BME280;5078;42.544;22.966;2022-09-03T02:56:23;93878.50;;;16.32;100.00
10079;BME280;5078;42.544;22.966;2022-09-03T02:58:52;93874.03;;;16.19;100.00
10079;BME280;5078;42.544;22.966;2022-09-03T03:01:19;93871.16;;;16.14;100.00
10079;BME280;5078;42.544;22.966;2022-09-03T03:03:46;93872.75;;;16.35;100.00
10079;BME280;5078;42.544;22.966;2022-09-03T03:06:14;93861.38;;;16.46;100.00
10079;BME280;5078;42.544;22.966;2022-09-03T03:08:40;93852.56;;;16.39;100.00
10079;BME280;5078;42.544;22.966;2022-09-03T03:11:08;93822.94;;;16.34;100.00
10079;BME280;5078;42.544;22.966;2022-09-03T03:13:35;93860.16;;;16.42;100.00
10079;BME280;5078;42.544;22.966;2022-09-03T03:16:05;93871.47;;;16.51;100.00
10079;BME280;5078;42.544;22.966;2022-09-03T03:18:34;93867.66;;;16.72;100.00
10079;BME280;5078;42.544;22.966;2022-09-03T03:21:04;93878.09;;;16.93;100.00
10079;BME280;5078;42.544;22.966;2022-09-03T03:23:33;93872.31;;;16.96;100.00
10079;BME280;5078;42.544;22.966;2022-09-03T03:26:06;93867.47;;;16.67;100.00
10079;BME280;5078;42.544;22.966;2022-09-03T03:28:33;93869.94;;;16.68;100.00
10079;BME280;5078;42.544;22.966;2022-09-03T03:31:04;93841.84;;;16.46;100.00
10079;BME280;5078;42.544;22.966;2022-09-03T03:33:31;93873.28;;;16.57;100.00
10079;BME280;5078;42.544;22.966;2022-09-03T03:36:03;93859.31;;;16.48;100.00
10079;BME280;5078;42.544;22.966;2022-09-03T03:38:30;93885.00;;;16.63;100.00
10079;BME280;5078;42.544;22.966;2022-09-03T03:40:58;93877.72;;;16.83;100.00
10079;BME280;5078;42.544;22.966;2022-09-03T03:43:24;93875.16;;;16.50;100.00
10079;BME280;5078;42.544;22.966;2022-09-03T03:45:57;93870.16;;;16.67;100.00
10079;BME280;5078;42.544;22.966;2022-09-03T03:48:24;93880.34;;;16.38;100.00
10079;BME280;5078;42.544;22.966;2022-09-03T03:50:51;93883.59;;;16.53;100.00
10079;BME280;5078;42.544;22.966;2022-09-03T03:53:18;93844.34;;;16.34;100.00
10079;BME280;5078;42.544;22.966;2022-09-03T03:55:53;93875.94;;;16.64;100.00
10079;BME280;5078;42.544;22.966;2022-09-03T03:58:22;93878.16;;;16.80;100.00
10079;BME280;5078;42.544;22.966;2022-09-03T04:00:49;93878.25;;;16.47;100.00
10079;BME280;5078;42.544;22.966;2022-09-03T04:03:16;93862.81;;;16.42;100.00
10079;BME280;5078;42.544;22.966;2022-09-03T04:05:42;93876.31;;;16.67;100.00
10079;BME280;5078;42.544;22.966;2022-09-03T04:08:09;93887.16;;;16.92;100.00
10079;BME280;5078;42.544;22.966;2022-09-03T04:10:37;93893.91;;;17.01;100.00
10079;BME280;5078;42.544;22.966;2022-09-03T04:13:04;93906.22;;;17.09;100.00
10079;BME280;5078;42.544;22.966;2022-09-03T04:15:32;93909.03;;;17.21;100.00
10079;BME280;5078;42.544;22.966;2022-09-03T04:17:59;93907.00;;;17.16;100.00
10079;BME280;5078;42.544;22.966;2022-09-03T04:20:26;93912.38;;;17.16;100.00
10079;BME280;5078;42.544;22.966;2022-09-03T04:22:53;93908.66;;;17.17;100.00
10079;BME280;5078;42.544;22.966;2022-09-03T04:25:19;93917.09;;;17.21;100.00
10079;BME280;5078;42.544;22.966;2022-09-03T04:27:46;93922.00;;;17.24;100.00
10079;BME280;5078;42.544;22.966;2022-09-03T04:30:15;93914.22;;;17.16;100.00
10079;BME280;5078;42.544;22.966;2022-09-03T04:32:44;93917.84;;;16.96;100.00
10079;BME280;5078;42.544;22.966;2022-09-03T04:35:23;93916.16;;;17.02;100.00
10079;BME280;5078;42.544;22.966;2022-09-03T04:38:00;93918.72;;;16.84;100.00
10079;BME280;5078;42.544;22.966;2022-09-03T04:40:28;93922.41;;;16.89;100.00
10079;BME280;5078;42.544;22.966;2022-09-03T04:42:56;93920.00;;;16.68;100.00
10079;BME280;5078;42.544;22.966;2022-09-03T04:45:26;93935.41;;;16.79;100.00
10079;BME280;5078;42.544;22.966;2022-09-03T04:47:59;93933.53;;;16.86;100.00
10079;BME280;5078;42.544;22.966;2022-09-03T04:50:26;93935.56;;;16.97;100.00
10079;BME280;5078;42.544;22.966;2022-09-03T04:52:54;93931.91;;;16.85;100.00
10079;BME280;5078;42.544;22.966;2022-09-03T04:55:23;93905.22;;;16.52;100.00
10079;BME280;5078;42.544;22.966;2022-09-03T04:57:50;93940.78;;;16.66;100.00
10079;BME280;5078;42.544;22.966;2022-09-03T05:00:17;93937.88;;;16.67;100.00
10079;BME280;5078;42.544;22.966;2022-09-03T05:02:44;93943.84;;;16.76;100.00
10079;BME280;5078;42.544;22.966;2022-09-03T05:05:14;93949.44;;;16.68;100.00
10079;BME280;5078;42.544;22.966;2022-09-03T05:07:41;93951.06;;;16.75;100.00
10079;BME280;5078;42.544;22.966;2022-09-03T05:10:09;93948.84;;;16.59;100.00
10079;BME280;5078;42.544;22.966;2022-09-03T05:12:40;93946.97;;;16.59;100.00
10079;BME280;5078;42.544;22.966;2022-09-03T05:15:08;93939.13;;;16.65;100.00
10079;BME280;5078;42.544;22.966;2022-09-03T05:17:34;93923.13;;;16.51;100.00
10079;BME280;5078;42.544;22.966;2022-09-03T05:20:03;93929.19;;;16.92;100.00
10079;BME280;5078;42.544;22.966;2022-09-03T05:22:32;93942.72;;;17.42;100.00
10079;BME280;5078;42.544;22.966;2022-09-03T05:25:02;93942.84;;;17.54;100.00
10079;BME280;5078;42.544;22.966;2022-09-03T05:27:30;93954.97;;;17.63;100.00
10079;BME280;5078;42.544;22.966;2022-09-03T05:29:57;93953.25;;;17.75;100.00
10079;BME280;5078;42.544;22.966;2022-09-03T05:32:23;93928.81;;;18.33;100.00
10079;BME280;5078;42.544;22.966;2022-09-03T05:34:53;93951.50;;;18.74;100.00
10079;BME280;5078;42.544;22.966;2022-09-03T05:37:20;93955.38;;;18.42;100.00
10079;BME280;5078;42.544;22.966;2022-09-03T05:39:56;93950.13;;;18.28;100.00
10079;BME280;5078;42.544;22.966;2022-09-03T05:42:23;93836.34;;;17.42;100.00
10079;BME280;5078;42.544;22.966;2022-09-03T05:44:53;93966.78;;;18.12;100.00
10079;BME280;5078;42.544;22.966;2022-09-03T05:47:19;93888.88;;;17.75;100.00
10079;BME280;5078;42.544;22.966;2022-09-03T05:49:46;93962.09;;;18.32;100.00
10079;BME280;5078;42.544;22.966;2022-09-03T05:52:13;93964.78;;;17.82;100.00
10079;BME280;5078;42.544;22.966;2022-09-03T05:54:40;93939.81;;;17.75;100.00
10079;BME280;5078;42.544;22.966;2022-09-03T05:57:08;93950.66;;;17.94;100.00
10079;BME280;5078;42.544;22.966;2022-09-03T05:59:35;93961.66;;;17.85;100.00
10079;BME280;5078;42.544;22.966;2022-09-03T06:02:01;93951.38;;;17.82;100.00
10079;BME280;5078;42.544;22.966;2022-09-03T06:04:29;93963.63;;;17.97;100.00
10079;BME280;5078;42.544;22.966;2022-09-03T06:06:56;93965.53;;;17.89;100.00
10079;BME280;5078;42.544;22.966;2022-09-03T06:09:23;93960.44;;;17.81;100.00
10079;BME280;5078;42.544;22.966;2022-09-03T06:11:50;93957.38;;;17.71;100.00
10079;BME280;5078;42.544;22.966;2022-09-03T06:14:19;93967.78;;;17.93;100.00
10079;BME280;5078;42.544;22.966;2022-09-03T06:16:48;93972.28;;;17.99;100.00
10079;BME280;5078;42.544;22.966;2022-09-03T06:19:17;93935.97;;;17.96;100.00
10079;BME280;5078;42.544;22.966;2022-09-03T06:21:45;93983.28;;;18.41;100.00
10079;BME280;5078;42.544;22.966;2022-09-03T06:24:15;93944.25;;;18.20;100.00
10079;BME280;5078;42.544;22.966;2022-09-03T06:26:43;93982.56;;;18.02;100.00
10079;BME280;5078;42.544;22.966;2022-09-03T06:29:11;93959.78;;;18.11;100.00
10079;BME280;5078;42.544;22.966;2022-09-03T06:31:39;93980.59;;;18.41;100.00
10079;BME280;5078;42.544;22.966;2022-09-03T06:34:06;93941.63;;;18.31;100.00
10079;BME280;5078;42.544;22.966;2022-09-03T06:36:33;93981.56;;;18.46;100.00
10079;BME280;5078;42.544;22.966;2022-09-03T06:39:00;93975.06;;;18.54;100.00
10079;BME280;5078;42.544;22.966;2022-09-03T06:41:28;93984.00;;;18.91;100.00
10079;BME280;5078;42.544;22.966;2022-09-03T06:43:59;93914.19;;;18.29;100.00
10079;BME280;5078;42.544;22.966;2022-09-03T06:46:26;93984.66;;;18.25;100.00
10079;BME280;5078;42.544;22.966;2022-09-03T06:48:54;93974.28;;;18.28;100.00
10079;BME280;5078;42.544;22.966;2022-09-03T06:51:23;93998.47;;;18.47;100.00
10079;BME280;5078;42.544;22.966;2022-09-03T06:53:52;93982.31;;;17.78;100.00
10079;BME280;5078;42.544;22.966;2022-09-03T06:56:22;94000.00;;;18.18;100.00
10079;BME280;5078;42.544;22.966;2022-09-03T06:58:52;93998.34;;;18.17;100.00
10079;BME280;5078;42.544;22.966;2022-09-03T07:01:20;93998.41;;;18.10;100.00
10079;BME280;5078;42.544;22.966;2022-09-03T07:03:53;93995.44;;;18.18;100.00
10079;BME280;5078;42.544;22.966;2022-09-03T07:06:24;93953.63;;;17.79;100.00
10079;BME280;5078;42.544;22.966;2022-09-03T07:08:51;93992.31;;;17.96;100.00
10079;BME280;5078;42.544;22.966;2022-09-03T07:11:20;93995.41;;;18.00;100.00
10079;BME280;5078;42.544;22.966;2022-09-03T07:13:51;93998.75;;;17.88;100.00
10079;BME280;5078;42.544;22.966;2022-09-03T07:16:21;94008.25;;;18.16;100.00
10079;BME280;5078;42.544;22.966;2022-09-03T07:18:49;94011.88;;;18.28;100.00
10079;BME280;5078;42.544;22.966;2022-09-03T07:21:17;94002.88;;;18.16;100.00
10079;BME280;5078;42.544;22.966;2022-09-03T07:23:46;94011.75;;;18.17;100.00
10079;BME280;5078;42.544;22.966;2022-09-03T07:26:15;94013.41;;;18.18;100.00
10079;BME280;5078;42.544;22.966;2022-09-03T07:28:43;94014.22;;;18.18;100.00
10079;BME280;5078;42.544;22.966;2022-09-03T07:31:12;94022.63;;;17.97;100.00
10079;BME280;5078;42.544;22.966;2022-09-03T07:33:40;93980.34;;;17.92;100.00
10079;BME280;5078;42.544;22.966;2022-09-03T07:36:08;94011.22;;;18.08;100.00
10079;BME280;5078;42.544;22.966;2022-09-03T07:38:36;94012.91;;;18.02;100.00
10079;BME280;5078;42.544;22.966;2022-09-03T07:41:05;94029.81;;;18.35;100.00
10079;BME280;5078;42.544;22.966;2022-09-03T07:43:34;94030.34;;;18.43;100.00
10079;BME280;5078;42.544;22.966;2022-09-03T07:46:01;94026.38;;;18.46;100.00
10079;BME280;5078;42.544;22.966;2022-09-03T07:48:28;93991.53;;;18.39;100.00
10079;BME280;5078;42.544;22.966;2022-09-03T07:50:57;94042.97;;;18.61;100.00
10079;BME280;5078;42.544;22.966;2022-09-03T07:53:25;94039.78;;;18.71;100.00
10079;BME280;5078;42.544;22.966;2022-09-03T07:55:52;94041.03;;;18.93;100.00
10079;BME280;5078;42.544;22.966;2022-09-03T07:58:22;94040.97;;;19.37;100.00
10079;BME280;5078;42.544;22.966;2022-09-03T08:00:49;94035.72;;;19.60;100.00
10079;BME280;5078;42.544;22.966;2022-09-03T08:03:16;94030.94;;;19.63;100.00
10079;BME280;5078;42.544;22.966;2022-09-03T08:05:43;94004.72;;;19.88;100.00
10079;BME280;5078;42.544;22.966;2022-09-03T08:08:09;94047.25;;;20.99;100.00
10079;BME280;5078;42.544;22.966;2022-09-03T08:10:38;94031.28;;;21.32;100.00
10079;BME280;5078;42.544;22.966;2022-09-03T08:13:05;94027.19;;;22.28;100.00
10079;BME280;5078;42.544;22.966;2022-09-03T08:15:33;94021.38;;;23.03;99.54
10079;BME280;5078;42.544;22.966;2022-09-03T08:18:01;94019.91;;;23.79;88.25
10079;BME280;5078;42.544;22.966;2022-09-03T08:20:28;94018.03;;;24.33;82.16
10079;BME280;5078;42.544;22.966;2022-09-03T08:23:00;94004.78;;;23.61;83.00
10079;BME280;5078;42.544;22.966;2022-09-03T08:25:28;93979.81;;;23.10;83.92
10079;BME280;5078;42.544;22.966;2022-09-03T08:27:57;94017.53;;;22.66;87.07
10079;BME280;5078;42.544;22.966;2022-09-03T08:30:24;94012.63;;;22.29;88.55
10079;BME280;5078;42.544;22.966;2022-09-03T08:32:53;94011.00;;;22.45;86.05
10079;BME280;5078;42.544;22.966;2022-09-03T08:35:21;94017.38;;;22.22;88.24
10079;BME280;5078;42.544;22.966;2022-09-03T08:37:48;94012.81;;;22.39;84.61
10079;BME280;5078;42.544;22.966;2022-09-03T08:40:19;94004.31;;;22.18;86.81
10079;BME280;5078;42.544;22.966;2022-09-03T08:43:02;94013.06;;;22.09;85.37
10079;BME280;5078;42.544;22.966;2022-09-03T08:45:35;94007.75;;;22.14;84.78
10079;BME280;5078;42.544;22.966;2022-09-03T08:48:10;94007.88;;;22.36;83.20
10079;BME280;5078;42.544;22.966;2022-09-03T08:50:41;93999.47;;;21.87;84.73
10079;BME280;5078;42.544;22.966;2022-09-03T08:53:14;94009.59;;;21.96;86.25
10079;BME280;5078;42.544;22.966;2022-09-03T08:55:46;94026.00;;;22.07;84.27
10079;BME280;5078;42.544;22.966;2022-09-03T08:58:16;93979.31;;;22.23;83.98
10079;BME280;5078;42.544;22.966;2022-09-03T09:00:49;94008.38;;;22.50;79.52
10079;BME280;5078;42.544;22.966;2022-09-03T09:03:33;94014.41;;;22.74;79.92
10079;BME280;5078;42.544;22.966;2022-09-03T09:06:10;94004.94;;;23.27;76.64
10079;BME280;5078;42.544;22.966;2022-09-03T09:08:49;94010.50;;;23.81;73.53
10079;BME280;5078;42.544;22.966;2022-09-03T09:11:30;94010.91;;;23.29;74.41
10079;BME280;5078;42.544;22.966;2022-09-03T09:14:01;94009.44;;;23.43;75.89
10079;BME280;5078;42.544;22.966;2022-09-03T09:16:37;94011.03;;;23.39;75.81
10079;BME280;5078;42.544;22.966;2022-09-03T09:19:16;94013.69;;;23.78;72.89
10079;BME280;5078;42.544;22.966;2022-09-03T09:21:48;94014.91;;;23.71;73.17
10079;BME280;5078;42.544;22.966;2022-09-03T09:24:21;94022.19;;;24.14;70.94
10079;BME280;5078;42.544;22.966;2022-09-03T09:26:48;94023.31;;;23.47;70.50
10079;BME280;5078;42.544;22.966;2022-09-03T09:29:17;94029.25;;;24.15;69.73
10079;BME280;5078;42.544;22.966;2022-09-03T09:31:44;94025.50;;;24.81;69.64
10079;BME280;5078;42.544;22.966;2022-09-03T09:34:12;94010.25;;;23.66;71.96
10079;BME280;5078;42.544;22.966;2022-09-03T09:36:45;93993.91;;;23.12;72.40
10079;BME280;5078;42.544;22.966;2022-09-03T09:39:12;94028.59;;;23.81;70.58
10079;BME280;5078;42.544;22.966;2022-09-03T09:41:41;94037.78;;;23.58;71.35
10079;BME280;5078;42.544;22.966;2022-09-03T09:44:17;94031.56;;;24.61;66.87
10079;BME280;5078;42.544;22.966;2022-09-03T09:46:45;94032.09;;;24.58;65.65
10079;BME280;5078;42.544;22.966;2022-09-03T09:49:28;94025.34;;;24.33;65.96
10079;BME280;5078;42.544;22.966;2022-09-03T09:52:00;94022.47;;;23.90;67.77
10079;BME280;5078;42.544;22.966;2022-09-03T09:54:27;93984.66;;;24.01;66.28
10079;BME280;5078;42.544;22.966;2022-09-03T09:56:58;94032.91;;;23.77;67.60
10079;BME280;5078;42.544;22.966;2022-09-03T09:59:26;94024.53;;;24.05;68.95
10079;BME280;5078;42.544;22.966;2022-09-03T10:02:03;94031.81;;;24.00;66.96
10079;BME280;5078;42.544;22.966;2022-09-03T10:04:35;94030.94;;;23.72;65.89
10079;BME280;5078;42.544;22.966;2022-09-03T10:07:04;94012.28;;;23.98;66.50
10079;BME280;5078;42.544;22.966;2022-09-03T10:09:33;94026.38;;;24.54;65.03
10079;BME280;5078;42.544;22.966;2022-09-03T10:12:07;93984.03;;;24.21;67.51
10079;BME280;5078;42.544;22.966;2022-09-03T10:14:41;94014.47;;;24.92;63.65
10079;BME280;5078;42.544;22.966;2022-09-03T10:17:15;94015.34;;;25.03;62.23
10079;BME280;5078;42.544;22.966;2022-09-03T10:19:51;93941.25;;;24.55;61.97
10079;BME280;5078;42.544;22.966;2022-09-03T10:22:40;94026.13;;;24.93;61.97
10079;BME280;5078;42.544;22.966;2022-09-03T10:25:13;94015.44;;;25.18;61.02
10079;BME280;5078;42.544;22.966;2022-09-03T10:27:40;94014.53;;;25.03;63.75
10079;BME280;5078;42.544;22.966;2022-09-03T10:30:10;94005.19;;;25.26;61.36
10079;BME280;5078;42.544;22.966;2022-09-03T10:32:42;94007.25;;;25.13;61.04
10079;BME280;5078;42.544;22.966;2022-09-03T10:35:19;94000.06;;;26.02;58.19
10079;BME280;5078;42.544;22.966;2022-09-03T10:37:54;94000.81;;;25.82;59.36
10079;BME280;5078;42.544;22.966;2022-09-03T10:40:30;94005.38;;;25.61;59.21
10079;BME280;5078;42.544;22.966;2022-09-03T10:43:32;94005.78;;;25.38;58.81
10079;BME280;5078;42.544;22.966;2022-09-03T10:46:08;93991.81;;;25.14;58.73
10079;BME280;5078;42.544;22.966;2022-09-03T10:48:48;94005.19;;;24.88;58.89
10079;BME280;5078;42.544;22.966;2022-09-03T10:51:24;93993.59;;;25.46;59.09
10079;BME280;5078;42.544;22.966;2022-09-03T10:54:14;94004.16;;;25.32;58.30
10079;BME280;5078;42.544;22.966;2022-09-03T10:56:53;94007.56;;;25.75;58.64
10079;BME280;5078;42.544;22.966;2022-09-03T10:59:32;94011.84;;;25.55;56.48
10079;BME280;5078;42.544;22.966;2022-09-03T11:02:16;94013.47;;;24.66;58.64
10079;BME280;5078;42.544;22.966;2022-09-03T11:04:51;94015.22;;;24.50;59.51
10079;BME280;5078;42.544;22.966;2022-09-03T11:07:25;94015.22;;;24.23;61.74
10079;BME280;5078;42.544;22.966;2022-09-03T11:09:58;94014.13;;;24.46;61.88
10079;BME280;5078;42.544;22.966;2022-09-03T11:12:31;94015.75;;;23.93;63.55
10079;BME280;5078;42.544;22.966;2022-09-03T11:15:00;94015.03;;;24.03;65.73
10079;BME280;5078;42.544;22.966;2022-09-03T11:17:35;93979.38;;;24.16;64.86
10079;BME280;5078;42.544;22.966;2022-09-03T11:20:10;94018.47;;;24.47;62.04
10079;BME280;5078;42.544;22.966;2022-09-03T11:22:42;93989.38;;;23.83;62.14
10079;BME280;5078;42.544;22.966;2022-09-03T11:25:13;94013.88;;;23.72;64.16
10079;BME280;5078;42.544;22.966;2022-09-03T11:27:52;93991.59;;;23.86;63.12
10079;BME280;5078;42.544;22.966;2022-09-03T11:30:23;94016.88;;;24.24;62.29
10079;BME280;5078;42.544;22.966;2022-09-03T11:32:53;93996.13;;;24.08;64.04
10079;BME280;5078;42.544;22.966;2022-09-03T11:35:26;94009.66;;;24.08;64.64
10079;BME280;5078;42.544;22.966;2022-09-03T11:37:58;93997.78;;;24.09;64.09
10079;BME280;5078;42.544;22.966;2022-09-03T11:40:31;94016.63;;;24.58;63.97
10079;BME280;5078;42.544;22.966;2022-09-03T11:43:06;94012.63;;;24.66;62.62
10079;BME280;5078;42.544;22.966;2022-09-03T11:45:36;94016.25;;;24.44;61.97
10079;BME280;5078;42.544;22.966;2022-09-03T11:48:17;94010.41;;;24.30;61.35
10079;BME280;5078;42.544;22.966;2022-09-03T11:50:53;94006.22;;;24.45;62.07
10079;BME280;5078;42.544;22.966;2022-09-03T11:53:24;94008.06;;;24.66;61.95
10079;BME280;5078;42.544;22.966;2022-09-03T11:55:58;94003.16;;;24.68;62.41
10079;BME280;5078;42.544;22.966;2022-09-03T11:58:28;94000.19;;;24.38;62.33
10079;BME280;5078;42.544;22.966;2022-09-03T12:00:57;94016.88;;;24.24;60.59
10079;BME280;5078;42.544;22.966;2022-09-03T12:03:27;94009.19;;;24.16;62.25
10079;BME280;5078;42.544;22.966;2022-09-03T12:06:09;93996.53;;;23.95;63.58
10079;BME280;5078;42.544;22.966;2022-09-03T12:08:55;93996.72;;;24.15;62.94
10079;BME280;5078;42.544;22.966;2022-09-03T12:11:34;93926.28;;;23.83;62.70
10079;BME280;5078;42.544;22.966;2022-09-03T12:14:09;93963.84;;;23.30;63.03
10079;BME280;5078;42.544;22.966;2022-09-03T12:16:59;93991.03;;;23.40;63.72
10079;BME280;5078;42.544;22.966;2022-09-03T12:19:36;93984.41;;;23.75;64.94
10079;BME280;5078;42.544;22.966;2022-09-03T12:22:05;93989.03;;;24.02;63.70
10079;BME280;5078;42.544;22.966;2022-09-03T12:24:33;93985.94;;;24.20;63.11
10079;BME280;5078;42.544;22.966;2022-09-03T12:27:02;93969.03;;;24.08;61.36
10079;BME280;5078;42.544;22.966;2022-09-03T12:29:30;93979.94;;;23.64;61.23
10079;BME280;5078;42.544;22.966;2022-09-03T12:32:05;93987.53;;;23.89;61.97
10079;BME280;5078;42.544;22.966;2022-09-03T12:34:33;93988.13;;;24.23;62.24
10079;BME280;5078;42.544;22.966;2022-09-03T12:36:59;93986.59;;;24.32;61.42
10079;BME280;5078;42.544;22.966;2022-09-03T12:39:28;93979.88;;;24.40;60.64
10079;BME280;5078;42.544;22.966;2022-09-03T12:41:59;93963.22;;;24.59;59.51
10079;BME280;5078;42.544;22.966;2022-09-03T12:44:30;93974.38;;;24.62;60.69
10079;BME280;5078;42.544;22.966;2022-09-03T12:47:04;93958.97;;;24.36;60.29
10079;BME280;5078;42.544;22.966;2022-09-03T12:49:35;93972.16;;;23.95;60.94
10079;BME280;5078;42.544;22.966;2022-09-03T12:52:08;93974.06;;;23.72;61.67
10079;BME280;5078;42.544;22.966;2022-09-03T12:54:43;93963.13;;;23.84;62.09
10079;BME280;5078;42.544;22.966;2022-09-03T12:57:19;93970.63;;;24.04;62.44
10079;BME280;5078;42.544;22.966;2022-09-03T12:59:47;93967.09;;;24.03;62.29
10079;BME280;5078;42.544;22.966;2022-09-03T13:02:16;93975.16;;;23.98;61.97
10079;BME280;5078;42.544;22.966;2022-09-03T13:04:46;93969.03;;;24.08;62.06
10079;BME280;5078;42.544;22.966;2022-09-03T13:07:20;93972.72;;;23.97;61.64
10079;BME280;5078;42.544;22.966;2022-09-03T13:09:49;93961.44;;;23.34;62.05
10079;BME280;5078;42.544;22.966;2022-09-03T13:12:28;93946.09;;;23.39;63.63
10079;BME280;5078;42.544;22.966;2022-09-03T13:14:56;93944.47;;;23.65;64.60